sensor_id;sensor_type;location;lat;lon;timestamp;temperature;humidity
41437;DHT22;27178;49.460;10.850;2023-04-08T00:02:22;10.60;66.10
41437;DHT22;27178;49.460;10.850;2023-04-08T00:04:50;10.60;66.30
41437;DHT22;27178;49.460;10.850;2023-04-08T00:07:18;10.60;66.30
41437;DHT22;27178;49.460;10.850;2023-04-08T00:09:48;10.60;66.30
41437;DHT22;27178;49.460;10.850;2023-04-08T00:12:17;10.60;66.30
41437;DHT22;27178;49.460;10.850;2023-04-08T00:14:45;10.50;66.10
41437;DHT22;27178;49.460;10.850;2023-04-08T00:17:13;10.50;66.10
41437;DHT22;27178;49.460;10.850;2023-04-08T00:19:42;10.50;66.00
41437;DHT22;27178;49.460;10.850;2023-04-08T00:22:11;10.50;66.00
41437;DHT22;27178;49.460;10.850;2023-04-08T00:24:39;10.40;66.00
41437;DHT22;27178;49.460;10.850;2023-04-08T00:27:09;10.40;66.00
41437;DHT22;27178;49.460;10.850;2023-04-08T00:29:38;10.30;66.00
41437;DHT22;27178;49.460;10.850;2023-04-08T00:32:06;10.30;65.90
41437;DHT22;27178;49.460;10.850;2023-04-08T00:34:34;10.30;66.00
41437;DHT22;27178;49.460;10.850;2023-04-08T00:37:02;10.20;66.00
41437;DHT22;27178;49.460;10.850;2023-04-08T00:39:31;10.20;66.00
41437;DHT22;27178;49.460;10.850;2023-04-08T00:42:00;10.20;66.10
41437;DHT22;27178;49.460;10.850;2023-04-08T00:44:30;10.10;66.10
41437;DHT22;27178;49.460;10.850;2023-04-08T00:46:58;10.10;66.30
41437;DHT22;27178;49.460;10.850;2023-04-08T00:49:27;10.10;66.20
41437;DHT22;27178;49.460;10.850;2023-04-08T00:51:55;10.10;66.20
41437;DHT22;27178;49.460;10.850;2023-04-08T00:54:23;10.00;66.00
41437;DHT22;27178;49.460;10.850;2023-04-08T00:56:52;10.00;66.10
41437;DHT22;27178;49.460;10.850;2023-04-08T00:59:20;10.00;66.10
41437;DHT22;27178;49.460;10.850;2023-04-08T01:01:56;10.00;66.10
41437;DHT22;27178;49.460;10.850;2023-04-08T01:04:31;10.00;66.20
41437;DHT22;27178;49.460;10.850;2023-04-08T01:07:04;9.90;66.00
41437;DHT22;27178;49.460;10.850;2023-04-08T01:09:38;9.90;66.00
41437;DHT22;27178;49.460;10.850;2023-04-08T01:12:08;9.90;65.80
41437;DHT22;27178;49.460;10.850;2023-04-08T01:14:42;9.90;65.80
41437;DHT22;27178;49.460;10.850;2023-04-08T01:17:14;9.80;65.60
41437;DHT22;27178;49.460;10.850;2023-04-08T01:19:46;9.80;65.50
41437;DHT22;27178;49.460;10.850;2023-04-08T01:22:22;9.80;65.50
41437;DHT22;27178;49.460;10.850;2023-04-08T01:24:58;9.80;65.60
41437;DHT22;27178;49.460;10.850;2023-04-08T01:27:31;9.80;65.50
41437;DHT22;27178;49.460;10.850;2023-04-08T01:30:00;9.80;65.60
41437;DHT22;27178;49.460;10.850;2023-04-08T01:32:31;9.70;65.60
41437;DHT22;27178;49.460;10.850;2023-04-08T01:35:01;9.70;65.70
41437;DHT22;27178;49.460;10.850;2023-04-08T01:37:30;9.70;65.80
41437;DHT22;27178;49.460;10.850;2023-04-08T01:40:00;9.70;65.80
41437;DHT22;27178;49.460;10.850;2023-04-08T01:42:32;9.70;65.80
41437;DHT22;27178;49.460;10.850;2023-04-08T01:45:01;9.70;66.10
41437;DHT22;27178;49.460;10.850;2023-04-08T01:47:30;9.70;66.20
41437;DHT22;27178;49.460;10.850;2023-04-08T01:50:00;9.70;66.30
41437;DHT22;27178;49.460;10.850;2023-04-08T01:52:29;9.70;66.40
41437;DHT22;27178;49.460;10.850;2023-04-08T01:55:00;9.70;66.60
41437;DHT22;27178;49.460;10.850;2023-04-08T01:57:32;9.70;66.60
41437;DHT22;27178;49.460;10.850;2023-04-08T02:00:05;9.70;66.70
41437;DHT22;27178;49.460;10.850;2023-04-08T02:02:35;9.80;66.90
41437;DHT22;27178;49.460;10.850;2023-04-08T02:05:06;9.80;66.80
41437;DHT22;27178;49.460;10.850;2023-04-08T02:07:35;9.80;66.90
41437;DHT22;27178;49.460;10.850;2023-04-08T02:10:05;9.80;66.80
41437;DHT22;27178;49.460;10.850;2023-04-08T02:12:34;9.80;66.90
41437;DHT22;27178;49.460;10.850;2023-04-08T02:15:04;9.80;66.90
41437;DHT22;27178;49.460;10.850;2023-04-08T02:17:41;9.80;66.90
41437;DHT22;27178;49.460;10.850;2023-04-08T02:20:15;9.80;66.90
41437;DHT22;27178;49.460;10.850;2023-04-08T02:22:47;9.90;67.00
41437;DHT22;27178;49.460;10.850;2023-04-08T02:25:21;9.90;67.10
41437;DHT22;27178;49.460;10.850;2023-04-08T02:27:52;9.90;67.10
41437;DHT22;27178;49.460;10.850;2023-04-08T02:30:23;9.90;67.10
41437;DHT22;27178;49.460;10.850;2023-04-08T02:32:53;9.90;67.10
41437;DHT22;27178;49.460;10.850;2023-04-08T02:35:22;9.90;67.00
41437;DHT22;27178;49.460;10.850;2023-04-08T02:37:50;9.90;66.90
41437;DHT22;27178;49.460;10.850;2023-04-08T02:40:23;9.90;66.90
41437;DHT22;27178;49.460;10.850;2023-04-08T02:42:53;9.90;66.90
41437;DHT22;27178;49.460;10.850;2023-04-08T02:45:24;9.90;66.80
41437;DHT22;27178;49.460;10.850;2023-04-08T02:47:54;9.90;66.90
41437;DHT22;27178;49.460;10.850;2023-04-08T02:50:23;9.90;66.80
41437;DHT22;27178;49.460;10.850;2023-04-08T02:52:52;9.90;66.70
41437;DHT22;27178;49.460;10.850;2023-04-08T02:55:20;9.90;66.70
41437;DHT22;27178;49.460;10.850;2023-04-08T02:57:48;9.90;66.70
41437;DHT22;27178;49.460;10.850;2023-04-08T03:00:18;9.90;66.60
41437;DHT22;27178;49.460;10.850;2023-04-08T03:02:46;9.90;66.60
41437;DHT22;27178;49.460;10.850;2023-04-08T03:05:15;9.90;66.50
41437;DHT22;27178;49.460;10.850;2023-04-08T03:07:43;9.90;66.60
41437;DHT22;27178;49.460;10.850;2023-04-08T03:10:12;9.90;66.50
41437;DHT22;27178;49.460;10.850;2023-04-08T03:12:40;9.90;66.50
41437;DHT22;27178;49.460;10.850;2023-04-08T03:15:09;9.90;66.50
41437;DHT22;27178;49.460;10.850;2023-04-08T03:17:38;9.90;66.50
41437;DHT22;27178;49.460;10.850;2023-04-08T03:20:07;11.40;67.50
41437;DHT22;27178;49.460;10.850;2023-04-08T03:22:36;9.90;66.30
41437;DHT22;27178;49.460;10.850;2023-04-08T03:25:05;9.80;66.10
41437;DHT22;27178;49.460;10.850;2023-04-08T03:27:34;9.80;66.10
41437;DHT22;27178;49.460;10.850;2023-04-08T03:30:02;9.80;66.00
41437;DHT22;27178;49.460;10.850;2023-04-08T03:32:31;9.80;66.00
41437;DHT22;27178;49.460;10.850;2023-04-08T03:35:01;9.80;66.00
41437;DHT22;27178;49.460;10.850;2023-04-08T03:37:30;9.80;66.30
41437;DHT22;27178;49.460;10.850;2023-04-08T03:39:58;9.70;65.80
41437;DHT22;27178;49.460;10.850;2023-04-08T03:42:26;9.70;65.80
41437;DHT22;27178;49.460;10.850;2023-04-08T03:44:54;9.70;65.90
41437;DHT22;27178;49.460;10.850;2023-04-08T03:47:23;9.60;65.90
41437;DHT22;27178;49.460;10.850;2023-04-08T03:49:52;9.60;66.00
41437;DHT22;27178;49.460;10.850;2023-04-08T03:52:22;9.50;66.10
41437;DHT22;27178;49.460;10.850;2023-04-08T03:54:51;9.50;66.20
41437;DHT22;27178;49.460;10.850;2023-04-08T03:57:19;9.50;66.10
41437;DHT22;27178;49.460;10.850;2023-04-08T03:59:48;9.40;66.00
41437;DHT22;27178;49.460;10.850;2023-04-08T04:02:16;9.40;66.30
41437;DHT22;27178;49.460;10.850;2023-04-08T04:04:44;9.30;66.30
41437;DHT22;27178;49.460;10.850;2023-04-08T04:07:13;9.30;66.30
41437;DHT22;27178;49.460;10.850;2023-04-08T04:09:43;9.20;66.40
41437;DHT22;27178;49.460;10.850;2023-04-08T04:12:12;9.20;66.50
41437;DHT22;27178;49.460;10.850;2023-04-08T04:14:40;9.20;66.40
41437;DHT22;27178;49.460;10.850;2023-04-08T04:17:08;9.20;66.40
41437;DHT22;27178;49.460;10.850;2023-04-08T04:19:37;9.10;66.40
41437;DHT22;27178;49.460;10.850;2023-04-08T04:22:06;9.10;66.30
41437;DHT22;27178;49.460;10.850;2023-04-08T04:24:34;9.00;66.10
41437;DHT22;27178;49.460;10.850;2023-04-08T04:27:04;9.00;66.00
41437;DHT22;27178;49.460;10.850;2023-04-08T04:29:32;9.00;66.30
41437;DHT22;27178;49.460;10.850;2023-04-08T04:32:00;8.90;66.30
41437;DHT22;27178;49.460;10.850;2023-04-08T04:34:28;8.90;66.40
41437;DHT22;27178;49.460;10.850;2023-04-08T04:36:57;8.90;66.60
41437;DHT22;27178;49.460;10.850;2023-04-08T04:39:25;8.80;66.60
41437;DHT22;27178;49.460;10.850;2023-04-08T04:41:53;8.80;66.70
41437;DHT22;27178;49.460;10.850;2023-04-08T04:44:23;8.80;66.70
41437;DHT22;27178;49.460;10.850;2023-04-08T04:46:51;8.80;66.90
41437;DHT22;27178;49.460;10.850;2023-04-08T04:49:20;8.80;66.90
41437;DHT22;27178;49.460;10.850;2023-04-08T04:51:49;8.80;66.90
41437;DHT22;27178;49.460;10.850;2023-04-08T04:54:17;8.70;67.00
41437;DHT22;27178;49.460;10.850;2023-04-08T04:56:47;8.70;67.00
41437;DHT22;27178;49.460;10.850;2023-04-08T04:59:15;8.70;67.20
41437;DHT22;27178;49.460;10.850;2023-04-08T05:01:45;8.70;67.30
41437;DHT22;27178;49.460;10.850;2023-04-08T05:04:14;8.70;67.40
41437;DHT22;27178;49.460;10.850;2023-04-08T05:06:42;8.70;67.30
41437;DHT22;27178;49.460;10.850;2023-04-08T05:09:10;8.70;67.20
41437;DHT22;27178;49.460;10.850;2023-04-08T05:11:39;8.70;67.20
41437;DHT22;27178;49.460;10.850;2023-04-08T05:14:07;8.70;67.20
41437;DHT22;27178;49.460;10.850;2023-04-08T05:16:35;8.70;67.30
41437;DHT22;27178;49.460;10.850;2023-04-08T05:19:06;8.70;67.30
41437;DHT22;27178;49.460;10.850;2023-04-08T05:21:34;8.70;67.20
41437;DHT22;27178;49.460;10.850;2023-04-08T05:24:02;8.70;67.10
41437;DHT22;27178;49.460;10.850;2023-04-08T05:26:30;8.70;67.00
41437;DHT22;27178;49.460;10.850;2023-04-08T05:28:59;8.70;67.00
41437;DHT22;27178;49.460;10.850;2023-04-08T05:31:27;8.80;67.00
41437;DHT22;27178;49.460;10.850;2023-04-08T05:33:56;8.80;67.00
41437;DHT22;27178;49.460;10.850;2023-04-08T05:36:25;8.80;66.90
41437;DHT22;27178;49.460;10.850;2023-04-08T05:38:54;8.80;66.90
41437;DHT22;27178;49.460;10.850;2023-04-08T05:41:22;8.90;66.90
41437;DHT22;27178;49.460;10.850;2023-04-08T05:43:51;8.80;66.80
41437;DHT22;27178;49.460;10.850;2023-04-08T05:46:19;8.90;66.90
41437;DHT22;27178;49.460;10.850;2023-04-08T05:48:48;8.90;66.90
41437;DHT22;27178;49.460;10.850;2023-04-08T05:51:17;9.00;66.90
41437;DHT22;27178;49.460;10.850;2023-04-08T05:53:47;9.00;66.80
41437;DHT22;27178;49.460;10.850;2023-04-08T05:56:15;9.00;66.70
41437;DHT22;27178;49.460;10.850;2023-04-08T05:58:43;9.00;66.50
41437;DHT22;27178;49.460;10.850;2023-04-08T06:01:13;9.10;66.40
41437;DHT22;27178;49.460;10.850;2023-04-08T06:03:41;9.10;66.30
41437;DHT22;27178;49.460;10.850;2023-04-08T06:06:10;9.10;66.20
41437;DHT22;27178;49.460;10.850;2023-04-08T06:08:39;9.10;66.20
41437;DHT22;27178;49.460;10.850;2023-04-08T06:11:09;9.20;66.30
41437;DHT22;27178;49.460;10.850;2023-04-08T06:13:37;9.20;66.40
41437;DHT22;27178;49.460;10.850;2023-04-08T06:16:13;10.70;67.30
41437;DHT22;27178;49.460;10.850;2023-04-08T06:18:45;9.30;66.50
41437;DHT22;27178;49.460;10.850;2023-04-08T06:21:14;9.30;66.30
41437;DHT22;27178;49.460;10.850;2023-04-08T06:23:43;9.30;66.50
41437;DHT22;27178;49.460;10.850;2023-04-08T06:26:13;9.40;66.50
41437;DHT22;27178;49.460;10.850;2023-04-08T06:28:41;9.40;66.40
41437;DHT22;27178;49.460;10.850;2023-04-08T06:31:10;9.40;66.20
41437;DHT22;27178;49.460;10.850;2023-04-08T06:33:38;9.50;66.30
41437;DHT22;27178;49.460;10.850;2023-04-08T06:36:07;9.50;66.10
41437;DHT22;27178;49.460;10.850;2023-04-08T06:38:36;9.50;66.00
41437;DHT22;27178;49.460;10.850;2023-04-08T06:41:04;9.60;65.90
41437;DHT22;27178;49.460;10.850;2023-04-08T06:43:34;9.60;65.80
41437;DHT22;27178;49.460;10.850;2023-04-08T06:46:04;9.60;65.90
41437;DHT22;27178;49.460;10.850;2023-04-08T06:48:32;9.70;66.00
41437;DHT22;27178;49.460;10.850;2023-04-08T06:51:00;9.70;65.90
41437;DHT22;27178;49.460;10.850;2023-04-08T06:53:28;9.70;65.70
41437;DHT22;27178;49.460;10.850;2023-04-08T06:55:58;9.80;65.60
41437;DHT22;27178;49.460;10.850;2023-04-08T06:58:27;9.80;65.30
41437;DHT22;27178;49.460;10.850;2023-04-08T07:00:58;9.80;65.20
41437;DHT22;27178;49.460;10.850;2023-04-08T07:03:27;9.80;65.40
41437;DHT22;27178;49.460;10.850;2023-04-08T07:05:55;9.90;65.40
41437;DHT22;27178;49.460;10.850;2023-04-08T07:08:23;9.90;65.40
41437;DHT22;27178;49.460;10.850;2023-04-08T07:10:52;9.90;65.60
41437;DHT22;27178;49.460;10.850;2023-04-08T07:13:20;9.90;65.80
41437;DHT22;27178;49.460;10.850;2023-04-08T07:15:48;9.90;65.90
41437;DHT22;27178;49.460;10.850;2023-04-08T07:18:18;9.90;66.20
41437;DHT22;27178;49.460;10.850;2023-04-08T07:20:49;9.90;66.50
41437;DHT22;27178;49.460;10.850;2023-04-08T07:23:19;9.90;66.60
41437;DHT22;27178;49.460;10.850;2023-04-08T07:25:47;9.90;67.50
41437;DHT22;27178;49.460;10.850;2023-04-08T07:28:16;9.90;66.80
41437;DHT22;27178;49.460;10.850;2023-04-08T07:30:44;9.90;67.00
41437;DHT22;27178;49.460;10.850;2023-04-08T07:33:13;9.90;67.30
41437;DHT22;27178;49.460;10.850;2023-04-08T07:35:43;9.90;67.40
41437;DHT22;27178;49.460;10.850;2023-04-08T07:38:12;9.90;67.50
41437;DHT22;27178;49.460;10.850;2023-04-08T07:40:40;9.90;67.60
41437;DHT22;27178;49.460;10.850;2023-04-08T07:43:08;9.90;67.70
41437;DHT22;27178;49.460;10.850;2023-04-08T07:45:36;9.90;67.80
41437;DHT22;27178;49.460;10.850;2023-04-08T07:48:05;9.90;67.80
41437;DHT22;27178;49.460;10.850;2023-04-08T07:50:35;9.90;68.00
41437;DHT22;27178;49.460;10.850;2023-04-08T07:53:25;9.90;68.20
41437;DHT22;27178;49.460;10.850;2023-04-08T07:55:53;9.90;68.30
41437;DHT22;27178;49.460;10.850;2023-04-08T07:58:22;9.90;68.30
41437;DHT22;27178;49.460;10.850;2023-04-08T08:00:51;9.90;68.40
41437;DHT22;27178;49.460;10.850;2023-04-08T08:03:19;9.90;68.60
41437;DHT22;27178;49.460;10.850;2023-04-08T08:05:48;9.90;68.70
41437;DHT22;27178;49.460;10.850;2023-04-08T08:08:17;9.90;68.80
41437;DHT22;27178;49.460;10.850;2023-04-08T08:10:47;9.90;69.00
41437;DHT22;27178;49.460;10.850;2023-04-08T08:13:15;9.90;69.20
41437;DHT22;27178;49.460;10.850;2023-04-08T08:15:51;9.90;69.10
41437;DHT22;27178;49.460;10.850;2023-04-08T08:18:20;9.90;69.30
41437;DHT22;27178;49.460;10.850;2023-04-08T08:20:48;9.90;69.20
41437;DHT22;27178;49.460;10.850;2023-04-08T08:23:16;9.90;69.30
41437;DHT22;27178;49.460;10.850;2023-04-08T08:25:46;9.90;69.30
41437;DHT22;27178;49.460;10.850;2023-04-08T08:28:14;9.90;69.50
41437;DHT22;27178;49.460;10.850;2023-04-08T08:30:43;10.00;69.70
41437;DHT22;27178;49.460;10.850;2023-04-08T08:33:12;10.00;69.70
41437;DHT22;27178;49.460;10.850;2023-04-08T08:35:40;10.00;69.70
41437;DHT22;27178;49.460;10.850;2023-04-08T08:38:09;9.90;69.50
41437;DHT22;27178;49.460;10.850;2023-04-08T08:40:38;10.00;69.80
41437;DHT22;27178;49.460;10.850;2023-04-08T08:43:08;10.00;69.80
41437;DHT22;27178;49.460;10.850;2023-04-08T08:45:38;10.00;70.00
41437;DHT22;27178;49.460;10.850;2023-04-08T08:48:08;10.00;70.00
41437;DHT22;27178;49.460;10.850;2023-04-08T08:50:37;10.00;70.00
41437;DHT22;27178;49.460;10.850;2023-04-08T08:53:05;10.00;70.10
41437;DHT22;27178;49.460;10.850;2023-04-08T08:55:34;10.00;70.20
41437;DHT22;27178;49.460;10.850;2023-04-08T08:58:08;10.00;70.20
41437;DHT22;27178;49.460;10.850;2023-04-08T09:00:38;10.00;70.10
41437;DHT22;27178;49.460;10.850;2023-04-08T09:03:18;10.00;70.20
41437;DHT22;27178;49.460;10.850;2023-04-08T09:05:48;10.00;70.40
41437;DHT22;27178;49.460;10.850;2023-04-08T09:08:24;10.00;70.10
41437;DHT22;27178;49.460;10.850;2023-04-08T09:10:52;10.00;70.30
41437;DHT22;27178;49.460;10.850;2023-04-08T09:13:23;10.10;70.30
41437;DHT22;27178;49.460;10.850;2023-04-08T09:16:01;10.10;70.60
41437;DHT22;27178;49.460;10.850;2023-04-08T09:18:31;10.10;70.80
41437;DHT22;27178;49.460;10.850;2023-04-08T09:21:01;10.10;70.60
41437;DHT22;27178;49.460;10.850;2023-04-08T09:23:47;10.10;70.50
41437;DHT22;27178;49.460;10.850;2023-04-08T09:26:17;10.20;70.90
41437;DHT22;27178;49.460;10.850;2023-04-08T09:28:59;10.20;70.50
41437;DHT22;27178;49.460;10.850;2023-04-08T09:31:52;10.20;70.70
41437;DHT22;27178;49.460;10.850;2023-04-08T09:34:20;10.30;70.50
41437;DHT22;27178;49.460;10.850;2023-04-08T09:36:49;10.30;70.40
41437;DHT22;27178;49.460;10.850;2023-04-08T09:39:18;10.30;70.40
41437;DHT22;27178;49.460;10.850;2023-04-08T09:41:48;10.30;70.50
41437;DHT22;27178;49.460;10.850;2023-04-08T09:44:20;10.30;70.50
41437;DHT22;27178;49.460;10.850;2023-04-08T09:46:58;10.40;70.60
41437;DHT22;27178;49.460;10.850;2023-04-08T09:49:33;10.40;70.80
41437;DHT22;27178;49.460;10.850;2023-04-08T09:52:07;10.40;70.80
41437;DHT22;27178;49.460;10.850;2023-04-08T09:54:41;10.40;70.80
41437;DHT22;27178;49.460;10.850;2023-04-08T09:57:15;10.40;70.80
41437;DHT22;27178;49.460;10.850;2023-04-08T09:59:51;10.40;70.60
41437;DHT22;27178;49.460;10.850;2023-04-08T10:02:27;10.50;70.70
41437;DHT22;27178;49.460;10.850;2023-04-08T10:04:58;10.50;70.70
41437;DHT22;27178;49.460;10.850;2023-04-08T10:07:33;10.50;70.60
41437;DHT22;27178;49.460;10.850;2023-04-08T10:10:02;10.40;70.50
41437;DHT22;27178;49.460;10.850;2023-04-08T10:12:31;10.50;70.60
41437;DHT22;27178;49.460;10.850;2023-04-08T10:15:25;10.50;70.60
41437;DHT22;27178;49.460;10.850;2023-04-08T10:17:55;10.50;70.90
41437;DHT22;27178;49.460;10.850;2023-04-08T10:20:43;10.50;70.70
41437;DHT22;27178;49.460;10.850;2023-04-08T10:23:13;10.50;71.00
41437;DHT22;27178;49.460;10.850;2023-04-08T10:25:42;10.50;70.60
41437;DHT22;27178;49.460;10.850;2023-04-08T10:28:24;10.40;70.60
41437;DHT22;27178;49.460;10.850;2023-04-08T10:30:55;10.40;71.00
41437;DHT22;27178;49.460;10.850;2023-04-08T10:33:30;10.40;70.80
41437;DHT22;27178;49.460;10.850;2023-04-08T10:36:07;10.40;71.10
41437;DHT22;27178;49.460;10.850;2023-04-08T10:38:37;10.40;71.20
41437;DHT22;27178;49.460;10.850;2023-04-08T10:41:09;10.40;71.10
41437;DHT22;27178;49.460;10.850;2023-04-08T10:43:40;10.50;71.40
41437;DHT22;27178;49.460;10.850;2023-04-08T10:46:10;10.50;71.40
41437;DHT22;27178;49.460;10.850;2023-04-08T10:48:39;10.50;71.50
41437;DHT22;27178;49.460;10.850;2023-04-08T10:51:07;10.60;71.50
41437;DHT22;27178;49.460;10.850;2023-04-08T10:53:37;10.60;71.50
41437;DHT22;27178;49.460;10.850;2023-04-08T10:56:07;10.60;71.50
41437;DHT22;27178;49.460;10.850;2023-04-08T10:58:46;10.70;71.60
41437;DHT22;27178;49.460;10.850;2023-04-08T11:01:18;10.70;71.60
41437;DHT22;27178;49.460;10.850;2023-04-08T11:03:47;10.80;71.60
41437;DHT22;27178;49.460;10.850;2023-04-08T11:06:17;10.80;71.40
41437;DHT22;27178;49.460;10.850;2023-04-08T11:08:45;10.90;71.30
41437;DHT22;27178;49.460;10.850;2023-04-08T11:11:14;10.90;71.10
41437;DHT22;27178;49.460;10.850;2023-04-08T11:13:44;11.00;71.10
41437;DHT22;27178;49.460;10.850;2023-04-08T11:16:20;11.00;71.10
41437;DHT22;27178;49.460;10.850;2023-04-08T11:18:50;11.00;71.10
41437;DHT22;27178;49.460;10.850;2023-04-08T11:21:18;11.10;71.10
41437;DHT22;27178;49.460;10.850;2023-04-08T11:23:48;11.10;70.90
41437;DHT22;27178;49.460;10.850;2023-04-08T11:26:18;11.10;71.00
41437;DHT22;27178;49.460;10.850;2023-04-08T11:28:47;11.20;70.90
41437;DHT22;27178;49.460;10.850;2023-04-08T11:31:18;11.20;70.90
41437;DHT22;27178;49.460;10.850;2023-04-08T11:33:53;11.20;70.90
41437;DHT22;27178;49.460;10.850;2023-04-08T11:36:23;11.30;70.90
41437;DHT22;27178;49.460;10.850;2023-04-08T11:38:53;11.30;70.70
41437;DHT22;27178;49.460;10.850;2023-04-08T11:41:22;11.40;70.70
41437;DHT22;27178;49.460;10.850;2023-04-08T11:43:53;11.40;70.70
41437;DHT22;27178;49.460;10.850;2023-04-08T11:46:23;11.50;70.70
41437;DHT22;27178;49.460;10.850;2023-04-08T11:49:00;11.50;70.60
41437;DHT22;27178;49.460;10.850;2023-04-08T11:51:29;11.60;70.50
41437;DHT22;27178;49.460;10.850;2023-04-08T11:53:57;11.60;70.30
41437;DHT22;27178;49.460;10.850;2023-04-08T11:56:26;11.60;70.30
41437;DHT22;27178;49.460;10.850;2023-04-08T11:58:56;11.60;70.20
41437;DHT22;27178;49.460;10.850;2023-04-08T12:01:25;11.60;70.10
41437;DHT22;27178;49.460;10.850;2023-04-08T12:04:00;11.70;70.10
41437;DHT22;27178;49.460;10.850;2023-04-08T12:06:29;11.70;70.10
41437;DHT22;27178;49.460;10.850;2023-04-08T12:08:57;11.70;70.00
41437;DHT22;27178;49.460;10.850;2023-04-08T12:11:25;11.70;69.90
41437;DHT22;27178;49.460;10.850;2023-04-08T12:13:54;11.80;70.00
41437;DHT22;27178;49.460;10.850;2023-04-08T12:16:23;11.80;69.90
41437;DHT22;27178;49.460;10.850;2023-04-08T12:18:51;11.80;70.00
41437;DHT22;27178;49.460;10.850;2023-04-08T12:21:21;11.80;69.90
41437;DHT22;27178;49.460;10.850;2023-04-08T12:23:49;11.80;69.80
41437;DHT22;27178;49.460;10.850;2023-04-08T12:26:18;11.80;69.80
41437;DHT22;27178;49.460;10.850;2023-04-08T12:28:47;11.80;69.80
41437;DHT22;27178;49.460;10.850;2023-04-08T12:31:15;11.80;69.80
41437;DHT22;27178;49.460;10.850;2023-04-08T12:33:43;11.80;69.90
41437;DHT22;27178;49.460;10.850;2023-04-08T12:36:12;11.80;70.00
41437;DHT22;27178;49.460;10.850;2023-04-08T12:38:41;11.80;70.00
41437;DHT22;27178;49.460;10.850;2023-04-08T12:41:10;11.80;70.00
41437;DHT22;27178;49.460;10.850;2023-04-08T12:43:38;11.90;70.10
41437;DHT22;27178;49.460;10.850;2023-04-08T12:46:06;11.90;70.10
41437;DHT22;27178;49.460;10.850;2023-04-08T12:48:35;11.90;70.10
41437;DHT22;27178;49.460;10.850;2023-04-08T12:51:03;12.00;70.10
41437;DHT22;27178;49.460;10.850;2023-04-08T12:53:32;12.10;70.10
41437;DHT22;27178;49.460;10.850;2023-04-08T12:56:01;12.10;69.90
41437;DHT22;27178;49.460;10.850;2023-04-08T12:58:31;12.20;69.80
41437;DHT22;27178;49.460;10.850;2023-04-08T13:00:59;12.20;69.60
41437;DHT22;27178;49.460;10.850;2023-04-08T13:03:28;12.20;69.40
41437;DHT22;27178;49.460;10.850;2023-04-08T13:05:58;12.30;69.40
41437;DHT22;27178;49.460;10.850;2023-04-08T13:08:26;12.30;69.40
41437;DHT22;27178;49.460;10.850;2023-04-08T13:10:55;12.30;69.30
41437;DHT22;27178;49.460;10.850;2023-04-08T13:13:25;12.30;69.20
41437;DHT22;27178;49.460;10.850;2023-04-08T13:15:53;12.30;69.20
41437;DHT22;27178;49.460;10.850;2023-04-08T13:18:23;12.30;69.00
41437;DHT22;27178;49.460;10.850;2023-04-08T13:20:52;12.30;69.10
41437;DHT22;27178;49.460;10.850;2023-04-08T13:23:20;12.30;69.10
41437;DHT22;27178;49.460;10.850;2023-04-08T13:25:48;12.30;69.10
41437;DHT22;27178;49.460;10.850;2023-04-08T13:28:17;12.20;69.10
41437;DHT22;27178;49.460;10.850;2023-04-08T13:30:47;12.20;69.00
41437;DHT22;27178;49.460;10.850;2023-04-08T13:33:15;12.20;69.00
41437;DHT22;27178;49.460;10.850;2023-04-08T13:35:44;12.20;69.20
41437;DHT22;27178;49.460;10.850;2023-04-08T13:38:12;12.20;69.20
41437;DHT22;27178;49.460;10.850;2023-04-08T13:40:40;12.20;69.20
41437;DHT22;27178;49.460;10.850;2023-04-08T13:43:10;12.10;69.20
41437;DHT22;27178;49.460;10.850;2023-04-08T13:45:38;12.10;69.20
41437;DHT22;27178;49.460;10.850;2023-04-08T13:48:09;12.10;69.30
41437;DHT22;27178;49.460;10.850;2023-04-08T13:50:37;12.10;69.40
41437;DHT22;27178;49.460;10.850;2023-04-08T13:53:06;12.10;69.50
41437;DHT22;27178;49.460;10.850;2023-04-08T13:55:34;12.10;69.60
41437;DHT22;27178;49.460;10.850;2023-04-08T13:58:02;12.10;69.60
41437;DHT22;27178;49.460;10.850;2023-04-08T14:00:43;12.10;69.60
41437;DHT22;27178;49.460;10.850;2023-04-08T14:03:12;12.10;69.70
41437;DHT22;27178;49.460;10.850;2023-04-08T14:05:41;12.10;69.90
41437;DHT22;27178;49.460;10.850;2023-04-08T14:08:09;12.10;69.80
41437;DHT22;27178;49.460;10.850;2023-04-08T14:10:38;12.20;69.80
41437;DHT22;27178;49.460;10.850;2023-04-08T14:13:08;12.20;69.70
41437;DHT22;27178;49.460;10.850;2023-04-08T14:15:36;12.30;69.60
41437;DHT22;27178;49.460;10.850;2023-04-08T14:18:05;12.30;69.60
41437;DHT22;27178;49.460;10.850;2023-04-08T14:20:37;12.40;69.60
41437;DHT22;27178;49.460;10.850;2023-04-08T14:23:06;12.40;69.40
41437;DHT22;27178;49.460;10.850;2023-04-08T14:25:34;12.40;69.30
41437;DHT22;27178;49.460;10.850;2023-04-08T14:28:03;12.50;69.30
41437;DHT22;27178;49.460;10.850;2023-04-08T14:30:31;12.50;69.30
41437;DHT22;27178;49.460;10.850;2023-04-08T14:33:00;12.60;69.40
41437;DHT22;27178;49.460;10.850;2023-04-08T14:35:28;12.70;69.40
41437;DHT22;27178;49.460;10.850;2023-04-08T14:37:58;12.80;69.20
41437;DHT22;27178;49.460;10.850;2023-04-08T14:40:26;12.90;68.90
41437;DHT22;27178;49.460;10.850;2023-04-08T14:42:55;13.00;68.70
41437;DHT22;27178;49.460;10.850;2023-04-08T14:45:24;13.10;68.50
41437;DHT22;27178;49.460;10.850;2023-04-08T14:47:52;13.10;68.20
41437;DHT22;27178;49.460;10.850;2023-04-08T14:50:21;13.20;68.00
41437;DHT22;27178;49.460;10.850;2023-04-08T14:52:49;13.30;67.80
41437;DHT22;27178;49.460;10.850;2023-04-08T14:55:20;13.40;67.60
41437;DHT22;27178;49.460;10.850;2023-04-08T14:57:48;13.40;67.40
41437;DHT22;27178;49.460;10.850;2023-04-08T15:00:17;13.50;67.30
41437;DHT22;27178;49.460;10.850;2023-04-08T15:02:46;13.60;67.10
41437;DHT22;27178;49.460;10.850;2023-04-08T15:05:14;13.70;66.90
41437;DHT22;27178;49.460;10.850;2023-04-08T15:07:43;13.80;66.50
41437;DHT22;27178;49.460;10.850;2023-04-08T15:10:12;13.90;66.00
41437;DHT22;27178;49.460;10.850;2023-04-08T15:12:43;14.00;66.00
41437;DHT22;27178;49.460;10.850;2023-04-08T15:15:12;14.20;65.80
41437;DHT22;27178;49.460;10.850;2023-04-08T15:17:41;14.20;65.10
41437;DHT22;27178;49.460;10.850;2023-04-08T15:20:10;14.30;64.60
41437;DHT22;27178;49.460;10.850;2023-04-08T15:22:39;14.40;64.10
41437;DHT22;27178;49.460;10.850;2023-04-08T15:25:08;14.40;63.80
41437;DHT22;27178;49.460;10.850;2023-04-08T15:27:37;14.40;63.40
41437;DHT22;27178;49.460;10.850;2023-04-08T15:30:07;14.30;63.00
41437;DHT22;27178;49.460;10.850;2023-04-08T15:32:38;14.30;62.80
41437;DHT22;27178;49.460;10.850;2023-04-08T15:35:08;14.30;62.80
41437;DHT22;27178;49.460;10.850;2023-04-08T15:37:37;14.20;62.60
41437;DHT22;27178;49.460;10.850;2023-04-08T15:40:06;14.20;62.50